Terminal Aerodrome Forecast
Issued by NWS

Home | Current Version | Previous Version | Graphics & Text | Print | Product List | Glossary On
Versions: 1 2 3 4 5 6 7 8 9 10 11 12 13 14 15 16 17 18 19 20 21 22 23 24 25 26 27 28 29 30 31 32 33 34 35 36 37 38 39 40 41 42 43 44 45 46 47 48 49 50
000
FTUS43 KLOT 192322
TAFGYY
TAF
KGYY 192322Z 2000/2024 06010KT 5SM -RA BR OVC007
      TEMPO 2000/2002 3SM BR OVC007
     FM200300 03007KT 1SM BR VCSH OVC005
     FM201100 25008KT 3SM BR VCSH OVC006
     FM201300 27012KT 6SM -SHRA BR OVC008
     FM201500 28015G24KT 6SM -SHRA OVC015
     FM201800 28018G28KT P6SM VCSH BKN020
     FM202000 27020G30KT P6SM BKN035=

USA.gov is the U.S. government's official web portal to all federal, state and local government web resources and services.